createdAt,value
2023-03-17T00:00:08.060Z,0.66
2023-03-17T00:04:08.198Z,0.66
2023-03-17T00:08:08.349Z,0.67
2023-03-17T00:12:08.506Z,0.65
2023-03-17T00:16:08.685Z,0.66
2023-03-17T00:20:08.794Z,0.66
2023-03-17T00:24:08.937Z,0.65
2023-03-17T00:28:09.067Z,0.65
2023-03-17T00:32:09.233Z,0.65
2023-03-17T00:36:09.396Z,0.65
2023-03-17T00:40:09.570Z,0.65
2023-03-17T00:44:09.699Z,0.65
2023-03-17T00:48:09.895Z,0.65
2023-03-17T00:52:09.984Z,0.65
2023-03-17T00:56:10.159Z,0.64
2023-03-17T01:00:10.327Z,0.64
2023-03-17T01:04:10.475Z,0.63
2023-03-17T01:08:10.653Z,0.64
2023-03-17T01:12:10.828Z,0.64
2023-03-17T01:18:20.956Z,0.50
2023-03-17T01:22:20.885Z,0.51
2023-03-17T01:26:20.822Z,0.52
2023-03-17T01:30:20.786Z,0.51
2023-03-17T01:34:20.773Z,0.52
2023-03-17T01:38:20.724Z,0.52
2023-03-17T01:42:20.715Z,0.50
2023-03-17T01:46:20.716Z,0.52
2023-03-17T01:50:21.110Z,0.51
2023-03-17T01:54:20.618Z,0.51
2023-03-17T01:58:20.585Z,0.52
2023-03-17T02:02:20.582Z,0.52
2023-03-17T02:06:20.702Z,0.51
2023-03-17T02:10:20.853Z,0.51
2023-03-17T02:14:20.975Z,0.52
2023-03-17T02:18:21.116Z,0.51
2023-03-17T02:22:21.242Z,0.51
2023-03-17T02:26:21.358Z,0.52
2023-03-17T02:30:21.480Z,0.50
2023-03-17T02:34:21.609Z,0.51
2023-03-17T02:38:21.732Z,0.51
2023-03-17T02:42:21.862Z,0.52
2023-03-17T02:46:22.030Z,0.51
2023-03-17T02:50:22.141Z,0.51
2023-03-17T02:54:22.234Z,0.51
2023-03-17T02:58:22.384Z,0.52
2023-03-17T03:02:22.549Z,0.51
2023-03-17T03:06:22.628Z,0.52
2023-03-17T03:10:22.784Z,0.52
2023-03-17T03:14:22.916Z,0.51
2023-03-17T03:18:23.039Z,0.52
2023-03-17T03:22:23.172Z,0.52
2023-03-17T03:26:23.296Z,0.52
2023-03-17T03:30:23.448Z,0.52
2023-03-17T03:34:23.587Z,0.51
2023-03-17T03:38:23.711Z,0.51
2023-03-17T03:42:23.834Z,0.51
2023-03-17T03:46:24.008Z,0.51
2023-03-17T03:50:24.100Z,0.52
2023-03-17T03:54:24.264Z,0.52
2023-03-17T03:58:24.346Z,0.51
2023-03-17T04:02:24.539Z,0.51
2023-03-17T04:06:24.638Z,0.51
2023-03-17T04:10:24.714Z,0.52
2023-03-17T04:14:24.845Z,0.51
2023-03-17T04:18:24.973Z,0.52
2023-03-17T04:22:25.124Z,0.52
2023-03-17T04:26:25.213Z,0.51
2023-03-17T04:30:25.401Z,0.50
2023-03-17T04:34:25.497Z,0.53
2023-03-17T04:38:25.622Z,0.52
2023-03-17T04:42:25.738Z,0.52
2023-03-17T04:46:25.903Z,0.52
2023-03-17T04:50:26.012Z,0.50
2023-03-17T04:54:26.149Z,0.51
2023-03-17T04:58:30.874Z,0.50
2023-03-17T05:02:27.272Z,0.51
2023-03-17T05:06:26.231Z,0.52
2023-03-17T05:10:26.159Z,0.51
2023-03-17T05:14:26.299Z,0.51
2023-03-17T05:18:26.424Z,0.51
2023-03-17T05:22:26.616Z,0.52
2023-03-17T05:26:26.712Z,0.51
2023-03-17T05:30:26.848Z,0.51
2023-03-17T05:34:27.004Z,0.50
2023-03-17T05:38:27.122Z,0.51
2023-03-17T05:42:27.285Z,0.52
2023-03-17T05:46:27.549Z,0.51
2023-03-17T05:50:27.829Z,0.52
2023-03-17T05:54:27.638Z,0.51
2023-03-17T05:58:27.782Z,0.52
2023-03-17T06:02:27.962Z,0.52
2023-03-17T06:06:28.079Z,0.50
2023-03-17T06:10:28.237Z,0.51
2023-03-17T06:14:28.361Z,0.51
2023-03-17T06:18:28.482Z,0.52
2023-03-17T06:22:28.593Z,0.51
2023-03-17T06:26:28.714Z,0.51
2023-03-17T06:30:28.826Z,0.52
2023-03-17T06:34:28.925Z,0.51
2023-03-17T06:38:29.257Z,0.52
2023-03-17T06:42:29.248Z,0.51
2023-03-17T06:46:29.337Z,0.52
2023-03-17T06:50:29.761Z,0.52
2023-03-17T06:54:29.735Z,0.52
2023-03-17T06:58:29.732Z,0.51
2023-03-17T07:02:30.241Z,0.52
2023-03-17T07:06:29.861Z,0.51
2023-03-17T07:10:30.256Z,0.51
2023-03-17T07:14:30.077Z,0.52
2023-03-17T07:18:30.212Z,0.52
2023-03-17T07:22:30.311Z,0.52
2023-03-17T07:26:30.770Z,0.44
2023-03-17T07:30:30.622Z,0.50
2023-03-17T07:34:30.765Z,0.54
2023-03-17T07:38:30.854Z,0.70
2023-03-17T07:42:30.985Z,0.75
2023-03-17T07:46:31.391Z,0.74
2023-03-17T07:50:31.253Z,0.75
2023-03-17T07:54:31.764Z,0.86
2023-03-17T07:58:31.489Z,0.89
2023-03-17T08:02:31.884Z,1.07
2023-03-17T08:06:31.844Z,1.38
2023-03-17T08:10:32.675Z,1.62
2023-03-17T08:14:31.866Z,1.88
2023-03-17T08:18:31.809Z,2.36
2023-03-17T08:22:32.268Z,2.78
2023-03-17T08:26:31.832Z,3.41
2023-03-17T08:30:33.767Z,3.78
2023-03-17T08:34:31.835Z,4.23
2023-03-17T08:38:31.808Z,4.43
2023-03-17T08:42:31.771Z,4.64
2023-03-17T08:46:31.841Z,8.46
2023-03-17T08:50:32.065Z,4.81
2023-03-17T08:54:31.642Z,5.16
2023-03-17T08:58:31.787Z,5.25
2023-03-17T09:02:31.658Z,5.65
2023-03-17T09:06:31.562Z,6.00
2023-03-17T09:10:31.699Z,6.17
2023-03-17T09:14:40.082Z,6.49
2023-03-17T09:18:32.512Z,6.69
2023-03-17T09:22:31.463Z,7.69
2023-03-17T09:26:31.603Z,7.52
2023-03-17T09:30:32.713Z,7.51
2023-03-17T09:34:31.992Z,7.35
2023-03-17T09:38:32.275Z,7.31
2023-03-17T09:42:32.794Z,6.93
2023-03-17T09:46:32.557Z,6.64
2023-03-17T09:50:33.236Z,6.70
2023-03-17T09:54:32.819Z,6.29
2023-03-17T09:58:32.807Z,5.97
2023-03-17T10:02:32.376Z,4.72
2023-03-17T10:06:32.351Z,2.08
2023-03-17T10:10:32.766Z,1.07
2023-03-17T10:14:32.261Z,0.65
2023-03-17T10:18:32.250Z,0.53
2023-03-17T10:22:32.218Z,0.50
2023-03-17T10:26:32.308Z,0.52
2023-03-17T10:30:32.787Z,0.49
2023-03-17T10:34:32.838Z,0.47
2023-03-17T10:38:32.652Z,1.54
2023-03-17T10:42:33.296Z,1.69
2023-03-17T10:46:33.361Z,1.49
2023-03-17T10:50:33.778Z,1.70
2023-03-17T10:54:33.027Z,1.44
2023-03-17T10:58:33.094Z,1.82
2023-03-17T11:02:33.072Z,2.51
2023-03-17T11:06:33.310Z,7.24
2023-03-17T11:10:33.188Z,3.40
2023-03-17T11:14:32.950Z,3.24
2023-03-17T11:18:33.379Z,3.57
2023-03-17T11:22:32.885Z,3.76
2023-03-17T11:26:32.949Z,3.62
2023-03-17T11:30:33.269Z,3.78
2023-03-17T11:34:32.837Z,3.67
2023-03-17T11:38:32.834Z,3.65
2023-03-17T11:42:32.847Z,3.36
2023-03-17T11:46:32.689Z,3.30
2023-03-17T11:50:33.195Z,3.37
2023-03-17T11:54:32.839Z,4.25
2023-03-17T11:58:32.591Z,4.35
2023-03-17T12:02:32.610Z,4.88
2023-03-17T12:06:32.520Z,4.61
2023-03-17T12:10:32.893Z,4.84
2023-03-17T12:14:32.426Z,7.16
2023-03-17T12:18:32.450Z,5.68
2023-03-17T12:22:32.898Z,5.58
2023-03-17T12:26:33.336Z,4.53
2023-03-17T12:30:33.561Z,4.78
2023-03-17T12:34:33.342Z,4.44
2023-03-17T12:38:33.397Z,3.92
2023-03-17T12:42:33.422Z,3.22
2023-03-17T12:46:33.387Z,1.27
2023-03-17T12:50:33.322Z,0.82
2023-03-17T12:54:33.348Z,0.75
2023-03-17T12:58:33.220Z,0.82
2023-03-17T13:02:33.182Z,0.72
2023-03-17T13:06:33.133Z,1.11
2023-03-17T13:10:33.114Z,1.30
2023-03-17T13:14:33.320Z,1.28
2023-03-17T13:18:33.195Z,1.38
2023-03-17T13:22:33.050Z,1.39
2023-03-17T13:26:33.145Z,1.43
2023-03-17T13:30:33.379Z,1.59
2023-03-17T13:34:33.335Z,1.56
2023-03-17T13:38:33.408Z,1.38
2023-03-17T13:42:33.507Z,1.49
2023-03-17T13:46:33.613Z,1.51
2023-03-17T13:50:33.667Z,1.66
2023-03-17T13:54:33.661Z,1.60
2023-03-17T13:58:33.562Z,1.48
2023-03-17T14:02:33.614Z,1.59
2023-03-17T14:06:33.642Z,1.64
2023-03-17T14:10:33.655Z,1.79
2023-03-17T14:14:33.734Z,1.80
2023-03-17T14:18:33.703Z,1.92
2023-03-17T14:22:33.658Z,1.88
2023-03-17T14:26:33.641Z,1.85
2023-03-17T14:30:33.622Z,1.75
2023-03-17T14:34:33.613Z,1.79
2023-03-17T14:38:33.615Z,1.92
2023-03-17T14:42:33.658Z,2.08
2023-03-17T14:46:33.755Z,1.89
2023-03-17T14:50:33.887Z,1.98
2023-03-17T14:54:33.933Z,2.13
2023-03-17T14:58:33.824Z,2.09
2023-03-17T15:02:33.847Z,2.10
2023-03-17T15:06:35.194Z,2.19
2023-03-17T15:10:33.994Z,1.78
2023-03-17T15:14:33.695Z,1.69
2023-03-17T15:18:33.634Z,1.66
2023-03-17T15:22:33.635Z,1.86
2023-03-17T15:26:33.553Z,1.76
2023-03-17T15:30:46.277Z,1.87
2023-03-17T15:34:34.558Z,1.73
2023-03-17T15:38:33.481Z,1.72
2023-03-17T15:42:33.422Z,1.61
2023-03-17T15:46:33.712Z,1.65
2023-03-17T15:50:34.074Z,1.47
2023-03-17T15:54:33.869Z,1.57
2023-03-17T15:58:33.825Z,1.59
2023-03-17T16:02:33.782Z,1.80
2023-03-17T16:06:33.740Z,1.93
2023-03-17T16:10:34.009Z,1.98
2023-03-17T16:14:33.674Z,2.01
2023-03-17T16:18:33.665Z,1.99
2023-03-17T16:22:33.627Z,1.99
2023-03-17T16:26:33.603Z,2.00
2023-03-17T16:30:34.073Z,2.03
2023-03-17T16:34:33.500Z,2.01
2023-03-17T16:38:33.490Z,2.04
2023-03-17T16:42:33.445Z,2.02
2023-03-17T16:46:35.188Z,2.02
2023-03-17T16:50:33.814Z,2.04
2023-03-17T16:54:33.348Z,2.04
2023-03-17T16:58:33.458Z,2.03
2023-03-17T17:02:33.609Z,2.01
2023-03-17T17:06:33.765Z,2.04
2023-03-17T17:10:33.934Z,2.04
2023-03-17T17:14:34.094Z,2.04
2023-03-17T17:18:36.503Z,2.03
2023-03-17T17:22:34.225Z,2.07
2023-03-17T17:26:34.199Z,2.06
2023-03-17T17:30:34.448Z,2.01
2023-03-17T17:34:34.141Z,2.05
2023-03-17T17:38:34.120Z,2.01
2023-03-17T17:42:34.062Z,2.03
2023-03-17T17:46:34.087Z,2.00
2023-03-17T17:50:34.228Z,2.03
2023-03-17T17:54:34.181Z,1.99
2023-03-17T17:58:34.034Z,2.00
2023-03-17T18:02:34.023Z,2.00
2023-03-17T18:06:33.996Z,2.00
2023-03-17T18:10:34.531Z,1.99
2023-03-17T18:14:33.925Z,1.99
2023-03-17T18:18:33.871Z,1.94
2023-03-17T18:22:33.835Z,1.95
2023-03-17T18:26:33.841Z,1.97
2023-03-17T18:30:34.203Z,1.94
2023-03-17T18:34:33.813Z,1.98
2023-03-17T18:38:33.758Z,1.95
2023-03-17T18:42:33.774Z,1.93
2023-03-17T18:46:33.769Z,1.93
2023-03-17T18:50:33.919Z,1.95
2023-03-17T18:54:33.624Z,1.93
2023-03-17T18:58:33.591Z,1.91
2023-03-17T19:02:33.536Z,1.92
2023-03-17T19:06:33.511Z,1.91
2023-03-17T19:10:33.919Z,1.85
2023-03-17T19:14:33.590Z,1.85
2023-03-17T19:18:33.570Z,1.87
2023-03-17T19:22:33.519Z,1.88
2023-03-17T19:26:33.482Z,1.87
2023-03-17T19:30:33.852Z,1.88
2023-03-17T19:34:33.408Z,1.86
2023-03-17T19:38:33.372Z,1.85
2023-03-17T19:42:33.336Z,1.84
2023-03-17T19:46:33.324Z,1.82
2023-03-17T19:50:33.655Z,1.84
2023-03-17T19:54:33.463Z,1.80
2023-03-17T19:58:33.646Z,1.85
2023-03-17T20:02:33.854Z,1.81
2023-03-17T20:06:33.992Z,1.80
2023-03-17T20:10:34.162Z,1.81
2023-03-17T20:14:34.339Z,1.79
2023-03-17T20:18:34.513Z,1.76
2023-03-17T20:22:34.688Z,1.74
2023-03-17T20:26:34.803Z,1.75
2023-03-17T20:30:34.969Z,1.76
2023-03-17T20:34:35.047Z,1.74
2023-03-17T20:38:35.229Z,1.72
2023-03-17T20:42:35.429Z,1.74
2023-03-17T20:46:35.597Z,1.72
2023-03-17T20:50:35.720Z,1.72
2023-03-17T20:54:35.872Z,1.71
2023-03-17T20:58:36.019Z,1.67
2023-03-17T21:02:36.234Z,1.70
2023-03-17T21:06:36.373Z,1.68
2023-03-17T21:10:36.474Z,1.67
2023-03-17T21:14:36.549Z,1.67
2023-03-17T21:18:36.589Z,1.66
2023-03-17T21:22:36.690Z,1.65
2023-03-17T21:26:36.807Z,1.66
2023-03-17T21:30:36.904Z,1.67
2023-03-17T21:34:36.988Z,1.62
2023-03-17T21:38:37.080Z,1.62
2023-03-17T21:42:37.158Z,1.62
2023-03-17T21:46:37.258Z,1.60
2023-03-17T21:50:37.279Z,1.60
2023-03-17T21:54:37.362Z,1.61
2023-03-17T21:58:37.392Z,1.55
2023-03-17T22:02:37.407Z,1.57
2023-03-17T22:06:37.430Z,1.55
2023-03-17T22:10:37.378Z,1.57
2023-03-17T22:14:37.468Z,1.56
2023-03-17T22:18:37.420Z,1.51
2023-03-17T22:22:37.453Z,1.54
2023-03-17T22:26:37.396Z,1.56
2023-03-17T22:30:37.438Z,1.52
2023-03-17T22:34:37.436Z,1.53
2023-03-17T22:38:37.470Z,1.49
2023-03-17T22:42:37.508Z,1.50
2023-03-17T22:46:37.513Z,1.52
2023-03-17T22:50:37.535Z,1.48
2023-03-17T22:54:37.520Z,1.46
2023-03-17T22:58:37.495Z,1.47
2023-03-17T23:02:37.513Z,1.46
2023-03-17T23:06:37.541Z,1.45
2023-03-17T23:10:37.564Z,1.44
2023-03-17T23:14:37.593Z,1.43
2023-03-17T23:18:37.613Z,1.45
2023-03-17T23:22:37.660Z,1.43
2023-03-17T23:26:37.721Z,1.45
2023-03-17T23:30:37.804Z,1.44
2023-03-17T23:34:37.767Z,1.42
2023-03-17T23:38:37.749Z,1.41
2023-03-17T23:42:37.774Z,1.39
2023-03-17T23:46:37.765Z,1.39
2023-03-17T23:50:37.727Z,1.37
2023-03-17T23:54:37.735Z,1.41
2023-03-17T23:58:37.720Z,1.40
